sensor_id;sensor_type;location;lat;lon;timestamp;temperature;humidity
70820;DHT22;58439;51.046;13.692;2022-11-15T00:00:23;6.00;99.90
70820;DHT22;58439;51.046;13.692;2022-11-15T00:03:09;6.00;99.90
70820;DHT22;58439;51.046;13.692;2022-11-15T00:05:55;6.00;99.90
70820;DHT22;58439;51.046;13.692;2022-11-15T00:08:47;6.00;99.90
70820;DHT22;58439;51.046;13.692;2022-11-15T00:11:32;5.90;99.90
70820;DHT22;58439;51.046;13.692;2022-11-15T00:14:18;5.90;99.90
70820;DHT22;58439;51.046;13.692;2022-11-15T00:17:04;5.80;99.90
70820;DHT22;58439;51.046;13.692;2022-11-15T00:19:50;5.80;99.90
70820;DHT22;58439;51.046;13.692;2022-11-15T00:22:38;5.80;99.90
70820;DHT22;58439;51.046;13.692;2022-11-15T00:25:24;5.90;99.90
70820;DHT22;58439;51.046;13.692;2022-11-15T00:28:09;5.90;99.90
70820;DHT22;58439;51.046;13.692;2022-11-15T00:31:04;6.00;99.90
70820;DHT22;58439;51.046;13.692;2022-11-15T00:33:52;6.00;99.90
70820;DHT22;58439;51.046;13.692;2022-11-15T00:36:38;6.00;99.90
70820;DHT22;58439;51.046;13.692;2022-11-15T00:39:24;6.00;99.90
70820;DHT22;58439;51.046;13.692;2022-11-15T00:42:10;6.00;99.90
70820;DHT22;58439;51.046;13.692;2022-11-15T00:44:56;6.20;99.90
70820;DHT22;58439;51.046;13.692;2022-11-15T00:47:44;6.30;99.90
70820;DHT22;58439;51.046;13.692;2022-11-15T00:50:31;6.30;99.90
70820;DHT22;58439;51.046;13.692;2022-11-15T00:53:17;6.30;99.90
70820;DHT22;58439;51.046;13.692;2022-11-15T00:56:03;6.40;99.90
70820;DHT22;58439;51.046;13.692;2022-11-15T00:58:50;6.40;99.90
70820;DHT22;58439;51.046;13.692;2022-11-15T01:01:35;6.50;99.90
70820;DHT22;58439;51.046;13.692;2022-11-15T01:04:21;6.50;99.90
70820;DHT22;58439;51.046;13.692;2022-11-15T01:07:07;6.50;99.90
70820;DHT22;58439;51.046;13.692;2022-11-15T01:09:53;6.40;99.90
70820;DHT22;58439;51.046;13.692;2022-11-15T01:12:39;6.30;99.90
70820;DHT22;58439;51.046;13.692;2022-11-15T01:15:25;6.30;99.90
70820;DHT22;58439;51.046;13.692;2022-11-15T01:18:12;6.20;99.90
70820;DHT22;58439;51.046;13.692;2022-11-15T01:20:58;6.20;99.90
70820;DHT22;58439;51.046;13.692;2022-11-15T01:23:45;6.20;99.90
70820;DHT22;58439;51.046;13.692;2022-11-15T01:31:16;6.00;99.90
70820;DHT22;58439;51.046;13.692;2022-11-15T01:34:03;5.90;99.90
70820;DHT22;58439;51.046;13.692;2022-11-15T01:37:14;5.80;99.90
70820;DHT22;58439;51.046;13.692;2022-11-15T01:40:00;5.80;99.90
70820;DHT22;58439;51.046;13.692;2022-11-15T01:42:46;5.60;99.90
70820;DHT22;58439;51.046;13.692;2022-11-15T01:45:32;5.60;99.90
70820;DHT22;58439;51.046;13.692;2022-11-15T02:03:31;5.50;99.90
70820;DHT22;58439;51.046;13.692;2022-11-15T02:36:15;6.00;99.90
70820;DHT22;58439;51.046;13.692;2022-11-15T02:39:11;6.00;99.90
70820;DHT22;58439;51.046;13.692;2022-11-15T02:42:13;6.10;99.90
70820;DHT22;58439;51.046;13.692;2022-11-15T02:45:28;6.10;99.90
70820;DHT22;58439;51.046;13.692;2022-11-15T02:48:21;6.10;99.90
70820;DHT22;58439;51.046;13.692;2022-11-15T02:51:09;6.10;99.90
70820;DHT22;58439;51.046;13.692;2022-11-15T02:53:57;6.10;99.90
70820;DHT22;58439;51.046;13.692;2022-11-15T02:56:44;6.10;99.90
70820;DHT22;58439;51.046;13.692;2022-11-15T03:06:52;6.10;99.90
70820;DHT22;58439;51.046;13.692;2022-11-15T03:09:50;6.10;99.90
70820;DHT22;58439;51.046;13.692;2022-11-15T03:16:10;6.10;99.90
70820;DHT22;58439;51.046;13.692;2022-11-15T03:19:30;6.10;99.90
70820;DHT22;58439;51.046;13.692;2022-11-15T03:22:33;6.10;99.90
70820;DHT22;58439;51.046;13.692;2022-11-15T03:25:55;6.10;99.90
70820;DHT22;58439;51.046;13.692;2022-11-15T03:29:03;6.00;99.90
70820;DHT22;58439;51.046;13.692;2022-11-15T03:32:07;6.00;99.90
70820;DHT22;58439;51.046;13.692;2022-11-15T03:35:06;6.00;99.90
70820;DHT22;58439;51.046;13.692;2022-11-15T03:38:08;6.00;99.90
70820;DHT22;58439;51.046;13.692;2022-11-15T03:41:07;6.00;99.90
70820;DHT22;58439;51.046;13.692;2022-11-15T03:50:21;6.00;99.90
70820;DHT22;58439;51.046;13.692;2022-11-15T03:53:08;6.00;99.90
70820;DHT22;58439;51.046;13.692;2022-11-15T03:55:55;6.00;99.90
70820;DHT22;58439;51.046;13.692;2022-11-15T03:58:40;6.00;99.90
70820;DHT22;58439;51.046;13.692;2022-11-15T04:01:26;6.00;99.90
70820;DHT22;58439;51.046;13.692;2022-11-15T04:04:12;6.00;99.90
70820;DHT22;58439;51.046;13.692;2022-11-15T04:06:58;6.00;99.90
70820;DHT22;58439;51.046;13.692;2022-11-15T04:09:44;6.00;99.90
70820;DHT22;58439;51.046;13.692;2022-11-15T04:12:49;6.00;99.90
70820;DHT22;58439;51.046;13.692;2022-11-15T04:15:35;6.00;99.90
70820;DHT22;58439;51.046;13.692;2022-11-15T04:18:21;6.00;99.90
70820;DHT22;58439;51.046;13.692;2022-11-15T04:21:12;6.00;99.90
70820;DHT22;58439;51.046;13.692;2022-11-15T04:24:26;6.00;99.90
70820;DHT22;58439;51.046;13.692;2022-11-15T04:27:11;6.00;99.90
70820;DHT22;58439;51.046;13.692;2022-11-15T04:29:59;6.10;99.90
70820;DHT22;58439;51.046;13.692;2022-11-15T04:32:45;6.00;99.90
70820;DHT22;58439;51.046;13.692;2022-11-15T04:35:31;6.00;99.90
70820;DHT22;58439;51.046;13.692;2022-11-15T04:38:17;6.00;99.90
70820;DHT22;58439;51.046;13.692;2022-11-15T04:41:03;6.00;99.90
70820;DHT22;58439;51.046;13.692;2022-11-15T04:43:49;6.00;99.90
70820;DHT22;58439;51.046;13.692;2022-11-15T04:46:35;6.00;99.90
70820;DHT22;58439;51.046;13.692;2022-11-15T04:49:21;6.00;99.90
70820;DHT22;58439;51.046;13.692;2022-11-15T04:52:07;6.00;99.90
70820;DHT22;58439;51.046;13.692;2022-11-15T04:54:52;6.00;99.90
70820;DHT22;58439;51.046;13.692;2022-11-15T04:57:38;6.00;99.90
70820;DHT22;58439;51.046;13.692;2022-11-15T05:00:26;6.00;99.90
70820;DHT22;58439;51.046;13.692;2022-11-15T05:03:14;6.00;99.90
70820;DHT22;58439;51.046;13.692;2022-11-15T05:06:21;5.90;99.90
70820;DHT22;58439;51.046;13.692;2022-11-15T05:09:08;6.00;99.90
70820;DHT22;58439;51.046;13.692;2022-11-15T05:11:54;6.00;99.90
70820;DHT22;58439;51.046;13.692;2022-11-15T05:14:40;6.00;99.90
70820;DHT22;58439;51.046;13.692;2022-11-15T05:17:25;6.00;99.90
70820;DHT22;58439;51.046;13.692;2022-11-15T05:20:12;6.00;99.90
70820;DHT22;58439;51.046;13.692;2022-11-15T05:22:58;6.00;99.90
70820;DHT22;58439;51.046;13.692;2022-11-15T05:25:43;6.00;99.90
70820;DHT22;58439;51.046;13.692;2022-11-15T05:28:29;5.90;99.90
70820;DHT22;58439;51.046;13.692;2022-11-15T05:31:18;6.00;99.90
70820;DHT22;58439;51.046;13.692;2022-11-15T05:34:04;6.00;99.90
70820;DHT22;58439;51.046;13.692;2022-11-15T05:36:51;6.00;99.90
70820;DHT22;58439;51.046;13.692;2022-11-15T05:39:37;6.00;99.90
70820;DHT22;58439;51.046;13.692;2022-11-15T05:42:25;6.00;99.90
70820;DHT22;58439;51.046;13.692;2022-11-15T05:45:12;6.00;99.90
70820;DHT22;58439;51.046;13.692;2022-11-15T05:48:07;6.00;99.90
70820;DHT22;58439;51.046;13.692;2022-11-15T05:52:09;6.00;99.90
70820;DHT22;58439;51.046;13.692;2022-11-15T05:55:01;6.00;99.90
70820;DHT22;58439;51.046;13.692;2022-11-15T05:57:49;6.00;99.90
70820;DHT22;58439;51.046;13.692;2022-11-15T06:00:35;6.00;99.90
70820;DHT22;58439;51.046;13.692;2022-11-15T06:03:21;6.00;99.90
70820;DHT22;58439;51.046;13.692;2022-11-15T06:06:07;6.00;99.90
70820;DHT22;58439;51.046;13.692;2022-11-15T06:09:00;6.00;99.90
70820;DHT22;58439;51.046;13.692;2022-11-15T06:11:46;6.10;99.90
70820;DHT22;58439;51.046;13.692;2022-11-15T06:14:35;6.10;99.90
70820;DHT22;58439;51.046;13.692;2022-11-15T06:17:22;6.10;99.90
70820;DHT22;58439;51.046;13.692;2022-11-15T06:20:08;6.20;99.90
70820;DHT22;58439;51.046;13.692;2022-11-15T06:23:02;6.20;99.90
70820;DHT22;58439;51.046;13.692;2022-11-15T06:26:18;6.20;99.90
70820;DHT22;58439;51.046;13.692;2022-11-15T06:29:04;6.20;99.90
70820;DHT22;58439;51.046;13.692;2022-11-15T06:31:50;6.10;99.90
70820;DHT22;58439;51.046;13.692;2022-11-15T06:34:36;6.20;99.90
70820;DHT22;58439;51.046;13.692;2022-11-15T06:37:31;6.20;99.90
70820;DHT22;58439;51.046;13.692;2022-11-15T06:40:24;6.20;99.90
70820;DHT22;58439;51.046;13.692;2022-11-15T06:43:10;6.20;99.90
70820;DHT22;58439;51.046;13.692;2022-11-15T06:45:58;6.20;99.90
70820;DHT22;58439;51.046;13.692;2022-11-15T06:48:44;6.20;99.90
70820;DHT22;58439;51.046;13.692;2022-11-15T06:51:39;6.30;99.90
70820;DHT22;58439;51.046;13.692;2022-11-15T06:55:01;6.30;99.90
70820;DHT22;58439;51.046;13.692;2022-11-15T06:58:04;6.40;99.90
70820;DHT22;58439;51.046;13.692;2022-11-15T07:01:11;6.40;99.90
70820;DHT22;58439;51.046;13.692;2022-11-15T07:03:58;6.40;99.90
70820;DHT22;58439;51.046;13.692;2022-11-15T07:07:09;6.40;99.90
70820;DHT22;58439;51.046;13.692;2022-11-15T07:09:55;6.50;99.90
70820;DHT22;58439;51.046;13.692;2022-11-15T07:12:41;6.50;99.90
70820;DHT22;58439;51.046;13.692;2022-11-15T07:15:27;6.50;99.90
70820;DHT22;58439;51.046;13.692;2022-11-15T07:18:17;6.60;99.90
70820;DHT22;58439;51.046;13.692;2022-11-15T07:21:15;6.60;99.90
70820;DHT22;58439;51.046;13.692;2022-11-15T07:24:12;6.60;99.90
70820;DHT22;58439;51.046;13.692;2022-11-15T07:26:58;6.60;99.90
70820;DHT22;58439;51.046;13.692;2022-11-15T07:29:44;6.70;99.90
70820;DHT22;58439;51.046;13.692;2022-11-15T07:32:30;6.70;99.90
70820;DHT22;58439;51.046;13.692;2022-11-15T07:35:16;6.80;99.90
70820;DHT22;58439;51.046;13.692;2022-11-15T07:38:03;6.90;99.90
70820;DHT22;58439;51.046;13.692;2022-11-15T07:40:57;6.90;99.90
70820;DHT22;58439;51.046;13.692;2022-11-15T07:43:43;7.00;99.90
70820;DHT22;58439;51.046;13.692;2022-11-15T07:46:29;7.00;99.90
70820;DHT22;58439;51.046;13.692;2022-11-15T07:49:15;7.10;99.90
70820;DHT22;58439;51.046;13.692;2022-11-15T07:52:01;7.20;99.90
70820;DHT22;58439;51.046;13.692;2022-11-15T07:54:46;7.30;99.90
70820;DHT22;58439;51.046;13.692;2022-11-15T07:57:32;7.30;99.90
70820;DHT22;58439;51.046;13.692;2022-11-15T08:00:19;7.40;99.90
70820;DHT22;58439;51.046;13.692;2022-11-15T08:03:12;7.50;99.90
70820;DHT22;58439;51.046;13.692;2022-11-15T08:05:59;7.50;99.90
70820;DHT22;58439;51.046;13.692;2022-11-15T08:09:09;7.60;99.90
70820;DHT22;58439;51.046;13.692;2022-11-15T08:11:55;7.60;99.90
70820;DHT22;58439;51.046;13.692;2022-11-15T08:14:41;7.70;99.90
70820;DHT22;58439;51.046;13.692;2022-11-15T08:17:27;7.70;99.90
70820;DHT22;58439;51.046;13.692;2022-11-15T08:20:12;7.90;99.90
70820;DHT22;58439;51.046;13.692;2022-11-15T08:23:00;7.90;99.90
70820;DHT22;58439;51.046;13.692;2022-11-15T08:25:47;8.00;99.90
70820;DHT22;58439;51.046;13.692;2022-11-15T08:28:34;8.00;99.90
70820;DHT22;58439;51.046;13.692;2022-11-15T08:31:19;8.10;99.90
70820;DHT22;58439;51.046;13.692;2022-11-15T08:34:06;8.20;99.90
70820;DHT22;58439;51.046;13.692;2022-11-15T08:36:51;8.30;99.90
70820;DHT22;58439;51.046;13.692;2022-11-15T08:39:37;8.40;99.90
70820;DHT22;58439;51.046;13.692;2022-11-15T08:42:23;8.40;99.90
70820;DHT22;58439;51.046;13.692;2022-11-15T08:45:09;8.50;99.90
70820;DHT22;58439;51.046;13.692;2022-11-15T08:48:01;8.60;99.90
70820;DHT22;58439;51.046;13.692;2022-11-15T08:50:48;8.70;99.90
70820;DHT22;58439;51.046;13.692;2022-11-15T08:53:34;8.80;99.90
70820;DHT22;58439;51.046;13.692;2022-11-15T08:56:22;8.80;99.90
70820;DHT22;58439;51.046;13.692;2022-11-15T08:59:25;8.90;99.90
70820;DHT22;58439;51.046;13.692;2022-11-15T09:02:13;9.00;99.90
70820;DHT22;58439;51.046;13.692;2022-11-15T09:04:59;9.10;99.90
70820;DHT22;58439;51.046;13.692;2022-11-15T09:07:46;9.20;99.90
70820;DHT22;58439;51.046;13.692;2022-11-15T09:10:32;9.30;99.90
70820;DHT22;58439;51.046;13.692;2022-11-15T09:13:18;9.40;99.90
70820;DHT22;58439;51.046;13.692;2022-11-15T09:16:06;9.40;99.90
70820;DHT22;58439;51.046;13.692;2022-11-15T09:18:55;9.60;99.90
70820;DHT22;58439;51.046;13.692;2022-11-15T09:21:42;9.60;99.90
70820;DHT22;58439;51.046;13.692;2022-11-15T09:24:28;9.60;99.90
70820;DHT22;58439;51.046;13.692;2022-11-15T09:27:15;9.80;99.90
70820;DHT22;58439;51.046;13.692;2022-11-15T09:30:00;9.80;99.90
70820;DHT22;58439;51.046;13.692;2022-11-15T09:32:49;9.90;99.90
70820;DHT22;58439;51.046;13.692;2022-11-15T09:35:36;10.00;99.90
70820;DHT22;58439;51.046;13.692;2022-11-15T09:38:22;10.10;99.90
70820;DHT22;58439;51.046;13.692;2022-11-15T09:44:29;10.30;99.00
70820;DHT22;58439;51.046;13.692;2022-11-15T09:47:41;10.40;98.80
70820;DHT22;58439;51.046;13.692;2022-11-15T09:50:52;10.50;98.40
70820;DHT22;58439;51.046;13.692;2022-11-15T09:56:30;10.70;97.60
70820;DHT22;58439;51.046;13.692;2022-11-15T10:04:38;11.20;96.20
70820;DHT22;58439;51.046;13.692;2022-11-15T10:07:27;12.00;95.70
70820;DHT22;58439;51.046;13.692;2022-11-15T10:10:14;13.00;92.70
70820;DHT22;58439;51.046;13.692;2022-11-15T10:12:49;13.90;90.00
70820;DHT22;58439;51.046;13.692;2022-11-15T10:15:20;14.30;85.70
70820;DHT22;58439;51.046;13.692;2022-11-15T10:20:53;14.70;82.50
70820;DHT22;58439;51.046;13.692;2022-11-15T10:23:26;15.00;81.40
70820;DHT22;58439;51.046;13.692;2022-11-15T10:25:58;15.20;79.30
70820;DHT22;58439;51.046;13.692;2022-11-15T10:28:32;15.60;77.40
70820;DHT22;58439;51.046;13.692;2022-11-15T10:31:01;15.90;75.20
70820;DHT22;58439;51.046;13.692;2022-11-15T10:33:35;15.90;72.40
70820;DHT22;58439;51.046;13.692;2022-11-15T10:44:11;16.00;69.60
70820;DHT22;58439;51.046;13.692;2022-11-15T10:49:25;16.30;68.00
70820;DHT22;58439;51.046;13.692;2022-11-15T10:52:00;16.40;66.80
70820;DHT22;58439;51.046;13.692;2022-11-15T10:54:51;16.60;66.10
70820;DHT22;58439;51.046;13.692;2022-11-15T10:57:37;17.00;63.80
70820;DHT22;58439;51.046;13.692;2022-11-15T11:03:37;17.20;61.00
70820;DHT22;58439;51.046;13.692;2022-11-15T11:06:17;17.20;59.70
70820;DHT22;58439;51.046;13.692;2022-11-15T11:10:40;17.30;59.40
70820;DHT22;58439;51.046;13.692;2022-11-15T11:14:38;17.10;56.80
70820;DHT22;58439;51.046;13.692;2022-11-15T11:30:45;18.20;51.10
70820;DHT22;58439;51.046;13.692;2022-11-15T11:37:09;17.80;51.50
70820;DHT22;58439;51.046;13.692;2022-11-15T11:40:28;18.00;51.20
70820;DHT22;58439;51.046;13.692;2022-11-15T11:42:59;18.30;50.20
70820;DHT22;58439;51.046;13.692;2022-11-15T11:45:59;18.40;48.80
70820;DHT22;58439;51.046;13.692;2022-11-15T11:48:46;18.20;48.70
70820;DHT22;58439;51.046;13.692;2022-11-15T11:54:03;18.10;48.90
70820;DHT22;58439;51.046;13.692;2022-11-15T11:56:41;18.10;48.70
70820;DHT22;58439;51.046;13.692;2022-11-15T11:59:34;18.30;48.50
70820;DHT22;58439;51.046;13.692;2022-11-15T12:02:34;18.50;47.20
70820;DHT22;58439;51.046;13.692;2022-11-15T12:05:41;18.60;47.10
70820;DHT22;58439;51.046;13.692;2022-11-15T12:08:31;18.70;46.00
70820;DHT22;58439;51.046;13.692;2022-11-15T12:18:13;19.50;44.10
70820;DHT22;58439;51.046;13.692;2022-11-15T12:25:01;19.40;43.60
70820;DHT22;58439;51.046;13.692;2022-11-15T12:40:23;19.10;42.90
70820;DHT22;58439;51.046;13.692;2022-11-15T12:43:34;19.20;42.50
70820;DHT22;58439;51.046;13.692;2022-11-15T12:49:41;19.40;42.20
70820;DHT22;58439;51.046;13.692;2022-11-15T12:52:10;19.40;41.60
70820;DHT22;58439;51.046;13.692;2022-11-15T13:02:31;19.40;40.90
70820;DHT22;58439;51.046;13.692;2022-11-15T13:17:55;18.70;42.60
70820;DHT22;58439;51.046;13.692;2022-11-15T13:20:32;18.70;42.30
70820;DHT22;58439;51.046;13.692;2022-11-15T13:23:15;18.40;42.40
70820;DHT22;58439;51.046;13.692;2022-11-15T13:26:01;18.20;42.90
70820;DHT22;58439;51.046;13.692;2022-11-15T13:28:45;18.40;42.90
70820;DHT22;58439;51.046;13.692;2022-11-15T13:31:23;18.40;42.40
70820;DHT22;58439;51.046;13.692;2022-11-15T13:33:57;18.50;42.40
70820;DHT22;58439;51.046;13.692;2022-11-15T13:36:30;18.40;42.50
70820;DHT22;58439;51.046;13.692;2022-11-15T13:39:06;18.20;42.40
70820;DHT22;58439;51.046;13.692;2022-11-15T13:41:48;17.80;42.90
70820;DHT22;58439;51.046;13.692;2022-11-15T13:44:26;16.90;44.00
70820;DHT22;58439;51.046;13.692;2022-11-15T13:47:07;15.90;46.60
70820;DHT22;58439;51.046;13.692;2022-11-15T13:49:41;15.00;49.30
70820;DHT22;58439;51.046;13.692;2022-11-15T13:52:12;14.30;53.00
70820;DHT22;58439;51.046;13.692;2022-11-15T13:54:53;13.80;57.50
70820;DHT22;58439;51.046;13.692;2022-11-15T13:57:30;13.30;62.70
70820;DHT22;58439;51.046;13.692;2022-11-15T14:03:06;12.80;65.60
70820;DHT22;58439;51.046;13.692;2022-11-15T14:05:41;12.50;68.70
70820;DHT22;58439;51.046;13.692;2022-11-15T14:08:23;12.30;70.20
70820;DHT22;58439;51.046;13.692;2022-11-15T14:11:19;12.10;71.70
70820;DHT22;58439;51.046;13.692;2022-11-15T14:16:51;11.70;75.20
70820;DHT22;58439;51.046;13.692;2022-11-15T14:26:04;11.30;77.50
70820;DHT22;58439;51.046;13.692;2022-11-15T14:28:37;11.20;79.10
70820;DHT22;58439;51.046;13.692;2022-11-15T14:31:11;11.10;80.50
70820;DHT22;58439;51.046;13.692;2022-11-15T14:33:41;10.90;80.10
70820;DHT22;58439;51.046;13.692;2022-11-15T14:36:14;10.80;81.40
70820;DHT22;58439;51.046;13.692;2022-11-15T14:38:43;10.80;81.90
70820;DHT22;58439;51.046;13.692;2022-11-15T14:43:47;10.60;82.60
70820;DHT22;58439;51.046;13.692;2022-11-15T14:46:15;10.50;83.70
70820;DHT22;58439;51.046;13.692;2022-11-15T14:48:43;10.50;83.60
70820;DHT22;58439;51.046;13.692;2022-11-15T14:51:15;10.40;84.30
70820;DHT22;58439;51.046;13.692;2022-11-15T14:53:45;10.30;85.00
70820;DHT22;58439;51.046;13.692;2022-11-15T14:56:14;10.20;86.30
70820;DHT22;58439;51.046;13.692;2022-11-15T14:58:42;10.10;86.20
70820;DHT22;58439;51.046;13.692;2022-11-15T15:01:13;9.90;87.00
70820;DHT22;58439;51.046;13.692;2022-11-15T15:03:53;9.80;88.20
70820;DHT22;58439;51.046;13.692;2022-11-15T15:06:25;9.70;88.90
70820;DHT22;58439;51.046;13.692;2022-11-15T15:08:53;9.60;89.10
70820;DHT22;58439;51.046;13.692;2022-11-15T15:11:25;9.50;89.40
70820;DHT22;58439;51.046;13.692;2022-11-15T15:13:54;9.40;90.00
70820;DHT22;58439;51.046;13.692;2022-11-15T15:16:24;9.30;90.20
70820;DHT22;58439;51.046;13.692;2022-11-15T15:18:51;9.10;90.40
70820;DHT22;58439;51.046;13.692;2022-11-15T15:21:25;9.00;91.00
70820;DHT22;58439;51.046;13.692;2022-11-15T15:24:01;8.90;91.40
70820;DHT22;58439;51.046;13.692;2022-11-15T15:26:28;8.80;91.80
70820;DHT22;58439;51.046;13.692;2022-11-15T15:28:56;8.70;91.80
70820;DHT22;58439;51.046;13.692;2022-11-15T15:31:23;8.70;92.00
70820;DHT22;58439;51.046;13.692;2022-11-15T15:33:51;8.60;92.20
70820;DHT22;58439;51.046;13.692;2022-11-15T15:36:19;8.50;92.60
70820;DHT22;58439;51.046;13.692;2022-11-15T15:38:47;8.50;92.80
70820;DHT22;58439;51.046;13.692;2022-11-15T15:41:17;8.40;93.10
70820;DHT22;58439;51.046;13.692;2022-11-15T15:44:00;8.30;93.60
70820;DHT22;58439;51.046;13.692;2022-11-15T15:46:27;8.30;93.70
70820;DHT22;58439;51.046;13.692;2022-11-15T15:48:54;8.30;94.00
70820;DHT22;58439;51.046;13.692;2022-11-15T15:51:22;8.20;93.80
70820;DHT22;58439;51.046;13.692;2022-11-15T15:53:49;8.10;94.20
70820;DHT22;58439;51.046;13.692;2022-11-15T15:56:18;8.10;94.20
70820;DHT22;58439;51.046;13.692;2022-11-15T15:58:45;8.00;94.60
70820;DHT22;58439;51.046;13.692;2022-11-15T16:01:13;8.00;94.60
70820;DHT22;58439;51.046;13.692;2022-11-15T16:03:40;7.90;94.90
70820;DHT22;58439;51.046;13.692;2022-11-15T16:06:33;7.90;95.10
70820;DHT22;58439;51.046;13.692;2022-11-15T16:09:17;7.80;95.30
70820;DHT22;58439;51.046;13.692;2022-11-15T16:12:05;7.80;95.60
70820;DHT22;58439;51.046;13.692;2022-11-15T16:14:42;7.70;95.50
70820;DHT22;58439;51.046;13.692;2022-11-15T16:17:21;7.70;95.80
70820;DHT22;58439;51.046;13.692;2022-11-15T16:22:53;7.50;96.20
70820;DHT22;58439;51.046;13.692;2022-11-15T16:26:48;7.50;96.80
70820;DHT22;58439;51.046;13.692;2022-11-15T16:29:02;7.50;96.90
70820;DHT22;58439;51.046;13.692;2022-11-15T16:31:33;7.40;96.90
70820;DHT22;58439;51.046;13.692;2022-11-15T16:34:49;7.40;97.70
70820;DHT22;58439;51.046;13.692;2022-11-15T16:40:57;7.40;97.70
70820;DHT22;58439;51.046;13.692;2022-11-15T16:48:37;7.30;97.90
70820;DHT22;58439;51.046;13.692;2022-11-15T16:52:49;7.30;98.00
70820;DHT22;58439;51.046;13.692;2022-11-15T16:56:42;7.20;98.10
70820;DHT22;58439;51.046;13.692;2022-11-15T16:59:33;7.30;98.10
70820;DHT22;58439;51.046;13.692;2022-11-15T17:02:09;7.10;98.20
70820;DHT22;58439;51.046;13.692;2022-11-15T17:04:38;7.10;98.10
70820;DHT22;58439;51.046;13.692;2022-11-15T17:07:05;7.10;98.50
70820;DHT22;58439;51.046;13.692;2022-11-15T17:09:32;7.00;98.70
70820;DHT22;58439;51.046;13.692;2022-11-15T17:12:00;7.10;98.60
70820;DHT22;58439;51.046;13.692;2022-11-15T17:14:28;7.00;98.70
70820;DHT22;58439;51.046;13.692;2022-11-15T17:16:59;6.90;98.60
70820;DHT22;58439;51.046;13.692;2022-11-15T17:19:27;6.90;99.20
70820;DHT22;58439;51.046;13.692;2022-11-15T17:21:54;6.90;99.10
70820;DHT22;58439;51.046;13.692;2022-11-15T17:24:22;6.80;99.20
70820;DHT22;58439;51.046;13.692;2022-11-15T17:26:49;6.80;99.10
70820;DHT22;58439;51.046;13.692;2022-11-15T17:29:17;6.80;99.40
70820;DHT22;58439;51.046;13.692;2022-11-15T17:31:47;6.70;99.40
70820;DHT22;58439;51.046;13.692;2022-11-15T17:34:14;6.60;99.70
70820;DHT22;58439;51.046;13.692;2022-11-15T17:36:42;6.60;99.90
70820;DHT22;58439;51.046;13.692;2022-11-15T17:39:09;6.60;99.90
70820;DHT22;58439;51.046;13.692;2022-11-15T17:41:36;6.60;99.90
70820;DHT22;58439;51.046;13.692;2022-11-15T17:44:11;6.60;99.90
70820;DHT22;58439;51.046;13.692;2022-11-15T17:46:39;6.50;99.90
70820;DHT22;58439;51.046;13.692;2022-11-15T17:49:13;6.50;99.90
70820;DHT22;58439;51.046;13.692;2022-11-15T17:51:41;6.50;99.90
70820;DHT22;58439;51.046;13.692;2022-11-15T17:54:15;6.50;99.90
70820;DHT22;58439;51.046;13.692;2022-11-15T17:56:47;6.40;99.90
70820;DHT22;58439;51.046;13.692;2022-11-15T17:59:14;6.40;99.90
70820;DHT22;58439;51.046;13.692;2022-11-15T18:01:47;6.40;99.90
70820;DHT22;58439;51.046;13.692;2022-11-15T18:04:15;6.30;99.90
70820;DHT22;58439;51.046;13.692;2022-11-15T18:06:43;6.30;99.90
70820;DHT22;58439;51.046;13.692;2022-11-15T18:09:22;6.30;99.90
70820;DHT22;58439;51.046;13.692;2022-11-15T18:11:50;6.30;99.90
70820;DHT22;58439;51.046;13.692;2022-11-15T18:14:21;6.20;99.90
70820;DHT22;58439;51.046;13.692;2022-11-15T18:16:48;6.20;99.90
70820;DHT22;58439;51.046;13.692;2022-11-15T18:19:15;6.20;99.90
70820;DHT22;58439;51.046;13.692;2022-11-15T18:21:44;6.10;99.90
70820;DHT22;58439;51.046;13.692;2022-11-15T18:24:28;6.10;99.90
70820;DHT22;58439;51.046;13.692;2022-11-15T18:26:58;6.10;99.90
70820;DHT22;58439;51.046;13.692;2022-11-15T18:29:26;6.10;99.90
70820;DHT22;58439;51.046;13.692;2022-11-15T18:31:54;6.10;99.90
70820;DHT22;58439;51.046;13.692;2022-11-15T18:34:23;6.10;99.90
70820;DHT22;58439;51.046;13.692;2022-11-15T18:36:52;6.00;99.90
70820;DHT22;58439;51.046;13.692;2022-11-15T18:39:20;6.00;99.90
70820;DHT22;58439;51.046;13.692;2022-11-15T18:41:57;6.00;99.90
70820;DHT22;58439;51.046;13.692;2022-11-15T18:44:24;6.00;99.90
70820;DHT22;58439;51.046;13.692;2022-11-15T18:46:53;6.00;99.90
70820;DHT22;58439;51.046;13.692;2022-11-15T18:49:21;6.00;99.90
70820;DHT22;58439;51.046;13.692;2022-11-15T18:51:48;5.90;99.90
70820;DHT22;58439;51.046;13.692;2022-11-15T18:54:16;5.90;99.90
70820;DHT22;58439;51.046;13.692;2022-11-15T18:56:43;5.90;99.90
70820;DHT22;58439;51.046;13.692;2022-11-15T18:59:13;5.90;99.90
70820;DHT22;58439;51.046;13.692;2022-11-15T19:01:43;5.80;99.90
70820;DHT22;58439;51.046;13.692;2022-11-15T19:04:17;5.80;99.90
70820;DHT22;58439;51.046;13.692;2022-11-15T19:06:47;5.80;99.90
70820;DHT22;58439;51.046;13.692;2022-11-15T19:09:17;5.80;99.90
70820;DHT22;58439;51.046;13.692;2022-11-15T19:11:46;5.80;99.90
70820;DHT22;58439;51.046;13.692;2022-11-15T19:14:16;5.80;99.90
70820;DHT22;58439;51.046;13.692;2022-11-15T19:16:46;5.70;99.90
70820;DHT22;58439;51.046;13.692;2022-11-15T19:19:20;5.70;99.90
70820;DHT22;58439;51.046;13.692;2022-11-15T19:21:51;5.70;99.90
70820;DHT22;58439;51.046;13.692;2022-11-15T19:24:18;5.70;99.90
70820;DHT22;58439;51.046;13.692;2022-11-15T19:26:46;5.70;99.90
70820;DHT22;58439;51.046;13.692;2022-11-15T19:29:13;5.70;99.90
70820;DHT22;58439;51.046;13.692;2022-11-15T19:31:41;5.70;99.90
70820;DHT22;58439;51.046;13.692;2022-11-15T19:34:09;5.70;99.90
70820;DHT22;58439;51.046;13.692;2022-11-15T19:36:42;5.60;99.90
70820;DHT22;58439;51.046;13.692;2022-11-15T19:39:12;5.60;99.90
70820;DHT22;58439;51.046;13.692;2022-11-15T19:41:42;5.60;99.90
70820;DHT22;58439;51.046;13.692;2022-11-15T19:44:13;5.60;99.90
70820;DHT22;58439;51.046;13.692;2022-11-15T19:46:41;5.60;99.90
70820;DHT22;58439;51.046;13.692;2022-11-15T19:49:14;5.60;99.90
70820;DHT22;58439;51.046;13.692;2022-11-15T19:52:04;5.60;99.90
70820;DHT22;58439;51.046;13.692;2022-11-15T19:54:32;5.50;99.90
70820;DHT22;58439;51.046;13.692;2022-11-15T19:57:02;5.50;99.90
70820;DHT22;58439;51.046;13.692;2022-11-15T19:59:30;5.50;99.90
70820;DHT22;58439;51.046;13.692;2022-11-15T20:01:57;5.40;99.90
70820;DHT22;58439;51.046;13.692;2022-11-15T20:04:24;5.40;99.90
70820;DHT22;58439;51.046;13.692;2022-11-15T20:07:23;5.40;99.90
70820;DHT22;58439;51.046;13.692;2022-11-15T20:09:54;5.40;99.90
70820;DHT22;58439;51.046;13.692;2022-11-15T20:12:40;5.40;99.90
70820;DHT22;58439;51.046;13.692;2022-11-15T20:15:08;5.40;99.90
70820;DHT22;58439;51.046;13.692;2022-11-15T20:17:35;5.40;99.90